sensor_id;sensor_type;location;lat;lon;timestamp;P1;durP1;ratioP1;P2;durP2;ratioP2
74465;SDS011;62916;50.044;15.938;2023-07-20T00:02:15;2.40;;;1.50;;
74465;SDS011;62916;50.044;15.938;2023-07-20T00:04:46;2.10;;;1.40;;
74465;SDS011;62916;50.044;15.938;2023-07-20T00:07:16;1.20;;;1.10;;
74465;SDS011;62916;50.044;15.938;2023-07-20T00:09:47;2.30;;;1.00;;
74465;SDS011;62916;50.044;15.938;2023-07-20T00:12:18;2.90;;;1.50;;
74465;SDS011;62916;50.044;15.938;2023-07-20T00:14:49;2.50;;;1.20;;
74465;SDS011;62916;50.044;15.938;2023-07-20T00:17:21;2.70;;;1.40;;
74465;SDS011;62916;50.044;15.938;2023-07-20T00:19:52;1.50;;;1.30;;
74465;SDS011;62916;50.044;15.938;2023-07-20T00:22:23;2.70;;;1.00;;
74465;SDS011;62916;50.044;15.938;2023-07-20T00:24:54;2.30;;;1.20;;
74465;SDS011;62916;50.044;15.938;2023-07-20T00:27:25;1.70;;;1.30;;
74465;SDS011;62916;50.044;15.938;2023-07-20T00:29:55;2.20;;;1.40;;
74465;SDS011;62916;50.044;15.938;2023-07-20T00:32:26;1.90;;;1.10;;
74465;SDS011;62916;50.044;15.938;2023-07-20T00:34:57;1.90;;;1.20;;
74465;SDS011;62916;50.044;15.938;2023-07-20T00:37:28;1.60;;;1.20;;
74465;SDS011;62916;50.044;15.938;2023-07-20T00:39:59;2.80;;;1.50;;
74465;SDS011;62916;50.044;15.938;2023-07-20T00:42:30;2.90;;;1.30;;
74465;SDS011;62916;50.044;15.938;2023-07-20T00:45:01;1.70;;;1.30;;
74465;SDS011;62916;50.044;15.938;2023-07-20T00:47:32;1.70;;;1.30;;
74465;SDS011;62916;50.044;15.938;2023-07-20T00:50:04;2.30;;;0.80;;
74465;SDS011;62916;50.044;15.938;2023-07-20T00:52:38;2.50;;;1.00;;
74465;SDS011;62916;50.044;15.938;2023-07-20T00:55:10;1.80;;;1.10;;
74465;SDS011;62916;50.044;15.938;2023-07-20T00:57:41;1.50;;;1.10;;
74465;SDS011;62916;50.044;15.938;2023-07-20T01:00:13;1.40;;;1.10;;
74465;SDS011;62916;50.044;15.938;2023-07-20T01:02:44;2.20;;;0.90;;
74465;SDS011;62916;50.044;15.938;2023-07-20T01:05:16;1.60;;;1.40;;
74465;SDS011;62916;50.044;15.938;2023-07-20T01:07:49;1.50;;;1.10;;
74465;SDS011;62916;50.044;15.938;2023-07-20T01:10:29;2.40;;;1.10;;
74465;SDS011;62916;50.044;15.938;2023-07-20T01:13:05;2.70;;;1.60;;
74465;SDS011;62916;50.044;15.938;2023-07-20T01:15:38;2.10;;;1.00;;
74465;SDS011;62916;50.044;15.938;2023-07-20T01:18:09;2.70;;;1.10;;
74465;SDS011;62916;50.044;15.938;2023-07-20T01:20:40;1.70;;;1.00;;
74465;SDS011;62916;50.044;15.938;2023-07-20T01:23:20;2.30;;;1.20;;
74465;SDS011;62916;50.044;15.938;2023-07-20T01:26:10;2.20;;;1.10;;
74465;SDS011;62916;50.044;15.938;2023-07-20T01:29:01;2.90;;;1.00;;
74465;SDS011;62916;50.044;15.938;2023-07-20T01:31:43;1.00;;;0.80;;
74465;SDS011;62916;50.044;15.938;2023-07-20T01:34:19;2.10;;;1.50;;
74465;SDS011;62916;50.044;15.938;2023-07-20T01:36:53;1.30;;;1.10;;
74465;SDS011;62916;50.044;15.938;2023-07-20T01:39:26;2.30;;;1.20;;
74465;SDS011;62916;50.044;15.938;2023-07-20T01:41:57;1.70;;;1.00;;
74465;SDS011;62916;50.044;15.938;2023-07-20T01:44:28;2.40;;;1.10;;
74465;SDS011;62916;50.044;15.938;2023-07-20T01:46:59;2.00;;;1.00;;
74465;SDS011;62916;50.044;15.938;2023-07-20T01:49:30;2.10;;;1.10;;
74465;SDS011;62916;50.044;15.938;2023-07-20T01:52:01;1.50;;;1.40;;
74465;SDS011;62916;50.044;15.938;2023-07-20T01:54:33;1.40;;;1.00;;
74465;SDS011;62916;50.044;15.938;2023-07-20T01:57:04;1.20;;;1.00;;
74465;SDS011;62916;50.044;15.938;2023-07-20T01:59:35;1.60;;;0.80;;
74465;SDS011;62916;50.044;15.938;2023-07-20T02:02:06;1.40;;;0.90;;
74465;SDS011;62916;50.044;15.938;2023-07-20T02:04:37;1.70;;;1.60;;
74465;SDS011;62916;50.044;15.938;2023-07-20T02:07:08;2.10;;;0.90;;
74465;SDS011;62916;50.044;15.938;2023-07-20T02:09:39;1.10;;;0.80;;
74465;SDS011;62916;50.044;15.938;2023-07-20T02:12:10;2.60;;;1.30;;
74465;SDS011;62916;50.044;15.938;2023-07-20T02:14:41;1.10;;;1.00;;
74465;SDS011;62916;50.044;15.938;2023-07-20T02:17:12;1.80;;;1.10;;
74465;SDS011;62916;50.044;15.938;2023-07-20T02:19:43;1.50;;;1.30;;
74465;SDS011;62916;50.044;15.938;2023-07-20T02:22:17;1.40;;;1.20;;
74465;SDS011;62916;50.044;15.938;2023-07-20T02:24:48;1.60;;;1.10;;
74465;SDS011;62916;50.044;15.938;2023-07-20T02:27:19;2.90;;;1.50;;
74465;SDS011;62916;50.044;15.938;2023-07-20T02:29:50;1.10;;;1.00;;
74465;SDS011;62916;50.044;15.938;2023-07-20T02:32:21;1.60;;;1.20;;
74465;SDS011;62916;50.044;15.938;2023-07-20T02:34:51;1.80;;;1.10;;
74465;SDS011;62916;50.044;15.938;2023-07-20T02:37:22;1.30;;;0.90;;
74465;SDS011;62916;50.044;15.938;2023-07-20T02:39:53;1.30;;;1.10;;
74465;SDS011;62916;50.044;15.938;2023-07-20T02:42:25;1.30;;;0.90;;
74465;SDS011;62916;50.044;15.938;2023-07-20T02:44:56;2.00;;;1.10;;
74465;SDS011;62916;50.044;15.938;2023-07-20T02:47:28;1.10;;;1.00;;
74465;SDS011;62916;50.044;15.938;2023-07-20T02:49:59;1.40;;;1.30;;
74465;SDS011;62916;50.044;15.938;2023-07-20T02:52:30;2.50;;;1.20;;
74465;SDS011;62916;50.044;15.938;2023-07-20T02:55:01;1.60;;;1.50;;
74465;SDS011;62916;50.044;15.938;2023-07-20T02:57:32;1.90;;;1.00;;
74465;SDS011;62916;50.044;15.938;2023-07-20T03:00:03;2.20;;;1.30;;
74465;SDS011;62916;50.044;15.938;2023-07-20T03:02:35;1.60;;;1.10;;
74465;SDS011;62916;50.044;15.938;2023-07-20T03:05:08;1.10;;;1.00;;
74465;SDS011;62916;50.044;15.938;2023-07-20T03:07:39;2.80;;;1.40;;
74465;SDS011;62916;50.044;15.938;2023-07-20T03:10:12;1.50;;;1.20;;
74465;SDS011;62916;50.044;15.938;2023-07-20T03:12:43;2.20;;;1.60;;
74465;SDS011;62916;50.044;15.938;2023-07-20T03:15:13;1.30;;;1.20;;
74465;SDS011;62916;50.044;15.938;2023-07-20T03:17:44;1.60;;;1.20;;
74465;SDS011;62916;50.044;15.938;2023-07-20T03:20:15;2.00;;;1.90;;
74465;SDS011;62916;50.044;15.938;2023-07-20T03:22:46;2.20;;;1.60;;
74465;SDS011;62916;50.044;15.938;2023-07-20T03:25:17;1.60;;;1.50;;
74465;SDS011;62916;50.044;15.938;2023-07-20T03:27:49;3.10;;;1.70;;
74465;SDS011;62916;50.044;15.938;2023-07-20T03:30:19;1.90;;;1.20;;
74465;SDS011;62916;50.044;15.938;2023-07-20T03:32:51;4.60;;;1.50;;
74465;SDS011;62916;50.044;15.938;2023-07-20T03:35:22;2.90;;;1.20;;
74465;SDS011;62916;50.044;15.938;2023-07-20T03:37:53;2.60;;;1.30;;
74465;SDS011;62916;50.044;15.938;2023-07-20T03:40:23;1.70;;;1.30;;
74465;SDS011;62916;50.044;15.938;2023-07-20T03:42:54;3.20;;;1.40;;
74465;SDS011;62916;50.044;15.938;2023-07-20T03:45:25;1.40;;;1.20;;
74465;SDS011;62916;50.044;15.938;2023-07-20T03:47:55;2.70;;;1.20;;
74465;SDS011;62916;50.044;15.938;2023-07-20T03:50:26;2.10;;;1.40;;
74465;SDS011;62916;50.044;15.938;2023-07-20T03:52:57;1.40;;;1.30;;
74465;SDS011;62916;50.044;15.938;2023-07-20T03:55:28;1.60;;;1.50;;
74465;SDS011;62916;50.044;15.938;2023-07-20T03:57:59;2.70;;;1.20;;
74465;SDS011;62916;50.044;15.938;2023-07-20T04:00:30;2.10;;;1.30;;
74465;SDS011;62916;50.044;15.938;2023-07-20T04:03:00;2.30;;;2.10;;
74465;SDS011;62916;50.044;15.938;2023-07-20T04:05:32;9.00;;;2.20;;
74465;SDS011;62916;50.044;15.938;2023-07-20T04:08:03;7.50;;;1.90;;
74465;SDS011;62916;50.044;15.938;2023-07-20T04:10:34;5.20;;;1.40;;
74465;SDS011;62916;50.044;15.938;2023-07-20T04:13:05;6.90;;;2.30;;
74465;SDS011;62916;50.044;15.938;2023-07-20T04:15:36;14.20;;;2.30;;
74465;SDS011;62916;50.044;15.938;2023-07-20T04:18:07;12.60;;;1.90;;
74465;SDS011;62916;50.044;15.938;2023-07-20T04:20:38;4.90;;;2.00;;
74465;SDS011;62916;50.044;15.938;2023-07-20T04:23:10;11.20;;;1.90;;
74465;SDS011;62916;50.044;15.938;2023-07-20T04:25:41;8.90;;;1.50;;
74465;SDS011;62916;50.044;15.938;2023-07-20T04:28:12;11.50;;;2.10;;
74465;SDS011;62916;50.044;15.938;2023-07-20T04:30:43;5.80;;;1.80;;
74465;SDS011;62916;50.044;15.938;2023-07-20T04:33:14;9.00;;;1.80;;
74465;SDS011;62916;50.044;15.938;2023-07-20T04:35:46;6.10;;;1.80;;
74465;SDS011;62916;50.044;15.938;2023-07-20T04:38:19;6.10;;;1.50;;
74465;SDS011;62916;50.044;15.938;2023-07-20T04:40:50;4.40;;;2.00;;
74465;SDS011;62916;50.044;15.938;2023-07-20T04:43:21;3.40;;;1.60;;
74465;SDS011;62916;50.044;15.938;2023-07-20T04:45:52;3.80;;;1.40;;
74465;SDS011;62916;50.044;15.938;2023-07-20T04:48:23;4.60;;;1.50;;
74465;SDS011;62916;50.044;15.938;2023-07-20T04:50:55;3.30;;;2.00;;
74465;SDS011;62916;50.044;15.938;2023-07-20T04:53:25;5.00;;;1.60;;
74465;SDS011;62916;50.044;15.938;2023-07-20T04:55:56;3.00;;;1.50;;
74465;SDS011;62916;50.044;15.938;2023-07-20T04:58:27;3.90;;;1.30;;
74465;SDS011;62916;50.044;15.938;2023-07-20T05:00:58;4.50;;;1.40;;
74465;SDS011;62916;50.044;15.938;2023-07-20T05:03:29;3.60;;;1.30;;
74465;SDS011;62916;50.044;15.938;2023-07-20T05:06:00;2.30;;;1.50;;
74465;SDS011;62916;50.044;15.938;2023-07-20T05:08:31;3.50;;;1.40;;
74465;SDS011;62916;50.044;15.938;2023-07-20T05:11:02;4.10;;;1.30;;
74465;SDS011;62916;50.044;15.938;2023-07-20T05:13:33;2.20;;;1.10;;
74465;SDS011;62916;50.044;15.938;2023-07-20T05:16:04;2.20;;;1.20;;
74465;SDS011;62916;50.044;15.938;2023-07-20T05:18:36;2.70;;;1.10;;
74465;SDS011;62916;50.044;15.938;2023-07-20T05:21:07;2.60;;;1.20;;
74465;SDS011;62916;50.044;15.938;2023-07-20T05:23:37;2.80;;;1.20;;
74465;SDS011;62916;50.044;15.938;2023-07-20T05:26:08;1.90;;;1.10;;
74465;SDS011;62916;50.044;15.938;2023-07-20T05:28:39;1.80;;;1.20;;
74465;SDS011;62916;50.044;15.938;2023-07-20T05:31:10;2.90;;;1.30;;
74465;SDS011;62916;50.044;15.938;2023-07-20T05:33:41;1.80;;;1.50;;
74465;SDS011;62916;50.044;15.938;2023-07-20T05:36:11;2.00;;;1.20;;
74465;SDS011;62916;50.044;15.938;2023-07-20T05:38:42;3.60;;;1.20;;
74465;SDS011;62916;50.044;15.938;2023-07-20T05:41:13;2.30;;;1.30;;
74465;SDS011;62916;50.044;15.938;2023-07-20T05:43:44;1.70;;;1.50;;
74465;SDS011;62916;50.044;15.938;2023-07-20T05:46:14;3.30;;;1.30;;
74465;SDS011;62916;50.044;15.938;2023-07-20T05:48:45;2.10;;;1.30;;
74465;SDS011;62916;50.044;15.938;2023-07-20T05:51:16;2.10;;;1.20;;
74465;SDS011;62916;50.044;15.938;2023-07-20T05:53:47;4.00;;;1.50;;
74465;SDS011;62916;50.044;15.938;2023-07-20T05:56:18;2.00;;;1.30;;
74465;SDS011;62916;50.044;15.938;2023-07-20T05:58:49;2.30;;;1.40;;
74465;SDS011;62916;50.044;15.938;2023-07-20T06:01:20;4.40;;;1.40;;
74465;SDS011;62916;50.044;15.938;2023-07-20T06:03:51;1.50;;;1.10;;
74465;SDS011;62916;50.044;15.938;2023-07-20T06:06:22;1.80;;;1.20;;
74465;SDS011;62916;50.044;15.938;2023-07-20T06:08:53;1.40;;;1.20;;
74465;SDS011;62916;50.044;15.938;2023-07-20T06:11:24;1.40;;;1.30;;
74465;SDS011;62916;50.044;15.938;2023-07-20T06:13:55;1.90;;;1.30;;
74465;SDS011;62916;50.044;15.938;2023-07-20T06:16:26;2.00;;;1.50;;
74465;SDS011;62916;50.044;15.938;2023-07-20T06:18:58;2.40;;;1.30;;
74465;SDS011;62916;50.044;15.938;2023-07-20T06:21:29;2.00;;;1.30;;
74465;SDS011;62916;50.044;15.938;2023-07-20T06:23:59;1.60;;;1.30;;
74465;SDS011;62916;50.044;15.938;2023-07-20T06:26:30;2.00;;;1.70;;
74465;SDS011;62916;50.044;15.938;2023-07-20T06:29:06;2.70;;;1.60;;
74465;SDS011;62916;50.044;15.938;2023-07-20T06:31:38;2.60;;;1.40;;
74465;SDS011;62916;50.044;15.938;2023-07-20T06:34:09;2.20;;;1.40;;
74465;SDS011;62916;50.044;15.938;2023-07-20T06:36:39;2.40;;;1.40;;
74465;SDS011;62916;50.044;15.938;2023-07-20T06:39:10;1.90;;;1.40;;
74465;SDS011;62916;50.044;15.938;2023-07-20T06:41:45;1.90;;;1.60;;
74465;SDS011;62916;50.044;15.938;2023-07-20T06:44:16;2.50;;;1.40;;
74465;SDS011;62916;50.044;15.938;2023-07-20T06:46:47;1.40;;;1.30;;
74465;SDS011;62916;50.044;15.938;2023-07-20T06:49:25;2.30;;;1.30;;
74465;SDS011;62916;50.044;15.938;2023-07-20T06:51:56;2.30;;;1.40;;
74465;SDS011;62916;50.044;15.938;2023-07-20T06:54:27;1.80;;;1.40;;
74465;SDS011;62916;50.044;15.938;2023-07-20T06:57:03;2.20;;;1.70;;
74465;SDS011;62916;50.044;15.938;2023-07-20T06:59:37;1.60;;;1.30;;
74465;SDS011;62916;50.044;15.938;2023-07-20T07:02:09;2.60;;;1.50;;
74465;SDS011;62916;50.044;15.938;2023-07-20T07:04:42;1.50;;;1.20;;
74465;SDS011;62916;50.044;15.938;2023-07-20T07:07:13;1.50;;;1.30;;
74465;SDS011;62916;50.044;15.938;2023-07-20T07:09:53;1.90;;;1.70;;
74465;SDS011;62916;50.044;15.938;2023-07-20T07:12:24;1.40;;;1.20;;
74465;SDS011;62916;50.044;15.938;2023-07-20T07:14:55;1.80;;;1.10;;
74465;SDS011;62916;50.044;15.938;2023-07-20T07:17:26;2.30;;;1.40;;
74465;SDS011;62916;50.044;15.938;2023-07-20T07:20:01;2.40;;;1.30;;
74465;SDS011;62916;50.044;15.938;2023-07-20T07:22:36;2.40;;;1.50;;
74465;SDS011;62916;50.044;15.938;2023-07-20T07:25:08;2.50;;;1.60;;
74465;SDS011;62916;50.044;15.938;2023-07-20T07:27:39;1.80;;;1.50;;
74465;SDS011;62916;50.044;15.938;2023-07-20T07:30:11;1.20;;;1.00;;
74465;SDS011;62916;50.044;15.938;2023-07-20T07:32:43;2.70;;;1.50;;
74465;SDS011;62916;50.044;15.938;2023-07-20T07:35:14;1.50;;;1.40;;
74465;SDS011;62916;50.044;15.938;2023-07-20T07:37:45;1.40;;;1.30;;
74465;SDS011;62916;50.044;15.938;2023-07-20T07:40:37;2.00;;;1.30;;
74465;SDS011;62916;50.044;15.938;2023-07-20T07:43:08;1.90;;;1.80;;
74465;SDS011;62916;50.044;15.938;2023-07-20T07:45:39;1.80;;;1.70;;
74465;SDS011;62916;50.044;15.938;2023-07-20T07:48:10;1.30;;;1.20;;
74465;SDS011;62916;50.044;15.938;2023-07-20T07:50:42;1.50;;;1.40;;
74465;SDS011;62916;50.044;15.938;2023-07-20T07:53:13;2.70;;;1.30;;
74465;SDS011;62916;50.044;15.938;2023-07-20T07:55:43;1.90;;;1.10;;
74465;SDS011;62916;50.044;15.938;2023-07-20T07:58:15;1.10;;;0.90;;
74465;SDS011;62916;50.044;15.938;2023-07-20T08:00:46;1.90;;;1.70;;
74465;SDS011;62916;50.044;15.938;2023-07-20T08:03:17;1.40;;;1.10;;
74465;SDS011;62916;50.044;15.938;2023-07-20T08:05:48;1.40;;;1.30;;
74465;SDS011;62916;50.044;15.938;2023-07-20T08:08:20;2.50;;;1.00;;
74465;SDS011;62916;50.044;15.938;2023-07-20T08:10:52;1.20;;;1.20;;
74465;SDS011;62916;50.044;15.938;2023-07-20T08:13:24;1.30;;;1.00;;
74465;SDS011;62916;50.044;15.938;2023-07-20T08:15:55;1.20;;;1.10;;
74465;SDS011;62916;50.044;15.938;2023-07-20T08:18:26;1.10;;;0.90;;
74465;SDS011;62916;50.044;15.938;2023-07-20T08:20:57;1.20;;;1.10;;
74465;SDS011;62916;50.044;15.938;2023-07-20T08:23:28;2.40;;;1.50;;
74465;SDS011;62916;50.044;15.938;2023-07-20T08:25:59;1.10;;;1.00;;
74465;SDS011;62916;50.044;15.938;2023-07-20T08:28:30;1.50;;;1.20;;
74465;SDS011;62916;50.044;15.938;2023-07-20T08:31:01;2.60;;;1.50;;
74465;SDS011;62916;50.044;15.938;2023-07-20T08:33:34;1.20;;;1.10;;
74465;SDS011;62916;50.044;15.938;2023-07-20T08:36:05;1.50;;;1.40;;
74465;SDS011;62916;50.044;15.938;2023-07-20T08:38:46;1.90;;;1.20;;
74465;SDS011;62916;50.044;15.938;2023-07-20T08:41:18;1.20;;;1.10;;
74465;SDS011;62916;50.044;15.938;2023-07-20T08:43:49;1.50;;;1.20;;
74465;SDS011;62916;50.044;15.938;2023-07-20T08:46:23;1.60;;;1.50;;
74465;SDS011;62916;50.044;15.938;2023-07-20T08:48:55;1.20;;;1.10;;
74465;SDS011;62916;50.044;15.938;2023-07-20T08:51:29;1.40;;;1.00;;
74465;SDS011;62916;50.044;15.938;2023-07-20T08:54:01;1.50;;;1.20;;
74465;SDS011;62916;50.044;15.938;2023-07-20T08:56:32;1.60;;;1.40;;
74465;SDS011;62916;50.044;15.938;2023-07-20T08:59:04;1.30;;;1.00;;
74465;SDS011;62916;50.044;15.938;2023-07-20T09:01:37;1.20;;;1.10;;
74465;SDS011;62916;50.044;15.938;2023-07-20T09:04:10;1.00;;;1.00;;
74465;SDS011;62916;50.044;15.938;2023-07-20T09:06:41;1.60;;;1.50;;
74465;SDS011;62916;50.044;15.938;2023-07-20T09:09:13;1.30;;;1.10;;
74465;SDS011;62916;50.044;15.938;2023-07-20T09:11:44;1.30;;;1.00;;
74465;SDS011;62916;50.044;15.938;2023-07-20T09:14:17;1.20;;;1.00;;
74465;SDS011;62916;50.044;15.938;2023-07-20T09:16:48;1.10;;;1.00;;
74465;SDS011;62916;50.044;15.938;2023-07-20T09:19:22;1.00;;;0.90;;
74465;SDS011;62916;50.044;15.938;2023-07-20T09:21:53;0.90;;;0.90;;
74465;SDS011;62916;50.044;15.938;2023-07-20T09:24:24;1.50;;;1.20;;
74465;SDS011;62916;50.044;15.938;2023-07-20T09:26:58;1.60;;;1.00;;
74465;SDS011;62916;50.044;15.938;2023-07-20T09:29:32;1.40;;;1.00;;
74465;SDS011;62916;50.044;15.938;2023-07-20T09:32:04;1.50;;;1.20;;
74465;SDS011;62916;50.044;15.938;2023-07-20T09:34:50;1.60;;;1.10;;
74465;SDS011;62916;50.044;15.938;2023-07-20T09:37:21;1.30;;;1.00;;
74465;SDS011;62916;50.044;15.938;2023-07-20T09:39:52;1.10;;;1.00;;
74465;SDS011;62916;50.044;15.938;2023-07-20T09:42:26;1.10;;;1.00;;
74465;SDS011;62916;50.044;15.938;2023-07-20T09:45:00;1.20;;;1.10;;
74465;SDS011;62916;50.044;15.938;2023-07-20T09:47:33;1.10;;;1.00;;
74465;SDS011;62916;50.044;15.938;2023-07-20T09:50:07;1.10;;;0.90;;
74465;SDS011;62916;50.044;15.938;2023-07-20T09:52:42;1.10;;;1.00;;
74465;SDS011;62916;50.044;15.938;2023-07-20T09:55:16;1.20;;;1.00;;
74465;SDS011;62916;50.044;15.938;2023-07-20T09:57:48;1.60;;;1.00;;
74465;SDS011;62916;50.044;15.938;2023-07-20T10:00:21;1.20;;;1.00;;
74465;SDS011;62916;50.044;15.938;2023-07-20T10:02:55;3.30;;;1.30;;
74465;SDS011;62916;50.044;15.938;2023-07-20T10:05:27;1.50;;;1.30;;
74465;SDS011;62916;50.044;15.938;2023-07-20T10:08:03;1.10;;;1.00;;
74465;SDS011;62916;50.044;15.938;2023-07-20T10:10:42;1.20;;;1.10;;
74465;SDS011;62916;50.044;15.938;2023-07-20T10:13:17;1.20;;;0.90;;
74465;SDS011;62916;50.044;15.938;2023-07-20T10:15:53;1.10;;;1.00;;
74465;SDS011;62916;50.044;15.938;2023-07-20T10:18:28;1.80;;;1.70;;
74465;SDS011;62916;50.044;15.938;2023-07-20T10:21:03;1.50;;;1.10;;
74465;SDS011;62916;50.044;15.938;2023-07-20T10:23:41;1.30;;;1.00;;
74465;SDS011;62916;50.044;15.938;2023-07-20T10:26:13;1.10;;;1.10;;
74465;SDS011;62916;50.044;15.938;2023-07-20T10:28:44;1.00;;;1.00;;
74465;SDS011;62916;50.044;15.938;2023-07-20T10:31:15;1.40;;;1.30;;
74465;SDS011;62916;50.044;15.938;2023-07-20T10:33:48;1.20;;;1.00;;
74465;SDS011;62916;50.044;15.938;2023-07-20T10:36:25;1.20;;;0.90;;
74465;SDS011;62916;50.044;15.938;2023-07-20T10:38:59;1.40;;;1.20;;
74465;SDS011;62916;50.044;15.938;2023-07-20T10:41:33;1.50;;;1.40;;
74465;SDS011;62916;50.044;15.938;2023-07-20T10:44:05;1.10;;;1.00;;
74465;SDS011;62916;50.044;15.938;2023-07-20T10:46:46;1.20;;;1.10;;
74465;SDS011;62916;50.044;15.938;2023-07-20T10:49:17;1.30;;;1.20;;
74465;SDS011;62916;50.044;15.938;2023-07-20T10:51:57;1.10;;;1.00;;
74465;SDS011;62916;50.044;15.938;2023-07-20T10:54:35;1.10;;;1.00;;
74465;SDS011;62916;50.044;15.938;2023-07-20T10:57:24;1.60;;;1.10;;
74465;SDS011;62916;50.044;15.938;2023-07-20T11:00:11;1.30;;;1.20;;
74465;SDS011;62916;50.044;15.938;2023-07-20T11:02:43;1.20;;;1.10;;
74465;SDS011;62916;50.044;15.938;2023-07-20T11:05:34;1.80;;;1.20;;
74465;SDS011;62916;50.044;15.938;2023-07-20T11:08:09;1.20;;;1.00;;
74465;SDS011;62916;50.044;15.938;2023-07-20T11:10:41;1.60;;;1.10;;
74465;SDS011;62916;50.044;15.938;2023-07-20T11:13:21;1.10;;;1.10;;
74465;SDS011;62916;50.044;15.938;2023-07-20T11:16:04;1.30;;;1.20;;
74465;SDS011;62916;50.044;15.938;2023-07-20T11:18:35;1.50;;;1.10;;
74465;SDS011;62916;50.044;15.938;2023-07-20T11:21:11;1.00;;;1.00;;
74465;SDS011;62916;50.044;15.938;2023-07-20T11:23:42;0.90;;;0.80;;
74465;SDS011;62916;50.044;15.938;2023-07-20T11:26:14;1.10;;;1.00;;
74465;SDS011;62916;50.044;15.938;2023-07-20T11:28:49;1.40;;;0.80;;
74465;SDS011;62916;50.044;15.938;2023-07-20T11:31:21;0.80;;;0.80;;
74465;SDS011;62916;50.044;15.938;2023-07-20T11:33:52;1.10;;;1.00;;
74465;SDS011;62916;50.044;15.938;2023-07-20T11:36:39;1.30;;;1.20;;
74465;SDS011;62916;50.044;15.938;2023-07-20T11:39:14;1.20;;;1.10;;
74465;SDS011;62916;50.044;15.938;2023-07-20T11:41:47;1.80;;;0.90;;
74465;SDS011;62916;50.044;15.938;2023-07-20T11:44:20;1.00;;;1.00;;
74465;SDS011;62916;50.044;15.938;2023-07-20T11:47:02;0.80;;;0.80;;
74465;SDS011;62916;50.044;15.938;2023-07-20T11:49:36;1.40;;;0.80;;
74465;SDS011;62916;50.044;15.938;2023-07-20T11:52:09;1.10;;;0.90;;
74465;SDS011;62916;50.044;15.938;2023-07-20T11:54:43;1.10;;;1.00;;
74465;SDS011;62916;50.044;15.938;2023-07-20T11:57:17;0.90;;;0.90;;
74465;SDS011;62916;50.044;15.938;2023-07-20T11:59:55;1.30;;;1.20;;
74465;SDS011;62916;50.044;15.938;2023-07-20T12:02:29;1.00;;;0.90;;
74465;SDS011;62916;50.044;15.938;2023-07-20T12:05:02;1.30;;;1.20;;
74465;SDS011;62916;50.044;15.938;2023-07-20T12:07:35;0.90;;;0.90;;
74465;SDS011;62916;50.044;15.938;2023-07-20T12:10:08;0.90;;;0.80;;
74465;SDS011;62916;50.044;15.938;2023-07-20T12:12:41;1.20;;;1.00;;
74465;SDS011;62916;50.044;15.938;2023-07-20T12:15:14;1.20;;;0.90;;
74465;SDS011;62916;50.044;15.938;2023-07-20T12:17:46;1.10;;;1.00;;
74465;SDS011;62916;50.044;15.938;2023-07-20T12:20:27;1.00;;;0.90;;
74465;SDS011;62916;50.044;15.938;2023-07-20T12:23:02;1.30;;;1.00;;
74465;SDS011;62916;50.044;15.938;2023-07-20T12:25:36;1.40;;;0.80;;
74465;SDS011;62916;50.044;15.938;2023-07-20T12:28:08;1.20;;;1.10;;
74465;SDS011;62916;50.044;15.938;2023-07-20T12:30:40;1.00;;;1.00;;
74465;SDS011;62916;50.044;15.938;2023-07-20T12:33:12;1.30;;;1.10;;
74465;SDS011;62916;50.044;15.938;2023-07-20T12:35:45;1.10;;;1.00;;
74465;SDS011;62916;50.044;15.938;2023-07-20T12:38:16;1.10;;;1.00;;
74465;SDS011;62916;50.044;15.938;2023-07-20T12:40:47;0.80;;;0.80;;
74465;SDS011;62916;50.044;15.938;2023-07-20T12:43:18;1.20;;;1.10;;
74465;SDS011;62916;50.044;15.938;2023-07-20T12:45:49;0.90;;;0.90;;
74465;SDS011;62916;50.044;15.938;2023-07-20T12:48:21;1.50;;;0.90;;
74465;SDS011;62916;50.044;15.938;2023-07-20T12:50:52;1.00;;;0.80;;
74465;SDS011;62916;50.044;15.938;2023-07-20T12:53:24;1.00;;;0.90;;
74465;SDS011;62916;50.044;15.938;2023-07-20T12:55:55;1.20;;;0.80;;
74465;SDS011;62916;50.044;15.938;2023-07-20T12:58:26;1.10;;;0.80;;
74465;SDS011;62916;50.044;15.938;2023-07-20T13:00:57;1.50;;;0.90;;
74465;SDS011;62916;50.044;15.938;2023-07-20T13:03:28;1.50;;;0.80;;
74465;SDS011;62916;50.044;15.938;2023-07-20T13:06:00;1.30;;;1.10;;
74465;SDS011;62916;50.044;15.938;2023-07-20T13:08:34;0.90;;;0.90;;
74465;SDS011;62916;50.044;15.938;2023-07-20T13:11:04;0.90;;;0.80;;
74465;SDS011;62916;50.044;15.938;2023-07-20T13:13:35;0.80;;;0.80;;
74465;SDS011;62916;50.044;15.938;2023-07-20T13:16:06;0.90;;;0.90;;
74465;SDS011;62916;50.044;15.938;2023-07-20T13:18:37;0.70;;;0.70;;
74465;SDS011;62916;50.044;15.938;2023-07-20T13:21:08;1.30;;;0.80;;
74465;SDS011;62916;50.044;15.938;2023-07-20T13:23:40;1.00;;;0.80;;
74465;SDS011;62916;50.044;15.938;2023-07-20T13:26:11;1.10;;;0.80;;
74465;SDS011;62916;50.044;15.938;2023-07-20T13:28:42;1.20;;;0.70;;
74465;SDS011;62916;50.044;15.938;2023-07-20T13:31:13;1.20;;;1.10;;
74465;SDS011;62916;50.044;15.938;2023-07-20T13:33:45;1.90;;;0.90;;
74465;SDS011;62916;50.044;15.938;2023-07-20T13:36:19;1.10;;;0.90;;
74465;SDS011;62916;50.044;15.938;2023-07-20T13:38:50;0.80;;;0.80;;
74465;SDS011;62916;50.044;15.938;2023-07-20T13:41:21;1.70;;;1.10;;
74465;SDS011;62916;50.044;15.938;2023-07-20T13:43:53;1.00;;;0.90;;
74465;SDS011;62916;50.044;15.938;2023-07-20T13:46:25;1.10;;;1.10;;
74465;SDS011;62916;50.044;15.938;2023-07-20T13:48:59;0.80;;;0.80;;
74465;SDS011;62916;50.044;15.938;2023-07-20T13:51:29;0.80;;;0.80;;
74465;SDS011;62916;50.044;15.938;2023-07-20T13:54:01;1.10;;;0.70;;
74465;SDS011;62916;50.044;15.938;2023-07-20T13:56:35;1.00;;;0.90;;
74465;SDS011;62916;50.044;15.938;2023-07-20T13:59:09;0.90;;;0.80;;
74465;SDS011;62916;50.044;15.938;2023-07-20T14:01:42;1.50;;;1.00;;
74465;SDS011;62916;50.044;15.938;2023-07-20T14:04:13;1.00;;;0.80;;
74465;SDS011;62916;50.044;15.938;2023-07-20T14:06:44;1.00;;;0.90;;
74465;SDS011;62916;50.044;15.938;2023-07-20T14:09:15;1.40;;;1.10;;
74465;SDS011;62916;50.044;15.938;2023-07-20T14:11:46;1.20;;;1.10;;
74465;SDS011;62916;50.044;15.938;2023-07-20T14:14:19;1.10;;;0.90;;
74465;SDS011;62916;50.044;15.938;2023-07-20T14:16:50;1.10;;;1.00;;
74465;SDS011;62916;50.044;15.938;2023-07-20T14:19:21;1.00;;;1.00;;
74465;SDS011;62916;50.044;15.938;2023-07-20T14:21:53;1.30;;;1.20;;
74465;SDS011;62916;50.044;15.938;2023-07-20T14:24:26;2.00;;;1.20;;
74465;SDS011;62916;50.044;15.938;2023-07-20T14:26:58;2.60;;;1.50;;
74465;SDS011;62916;50.044;15.938;2023-07-20T14:29:29;2.50;;;1.70;;
74465;SDS011;62916;50.044;15.938;2023-07-20T14:32:05;5.40;;;1.30;;
74465;SDS011;62916;50.044;15.938;2023-07-20T14:34:37;3.30;;;1.60;;
74465;SDS011;62916;50.044;15.938;2023-07-20T14:37:08;7.00;;;1.70;;
74465;SDS011;62916;50.044;15.938;2023-07-20T14:39:41;7.40;;;1.80;;
74465;SDS011;62916;50.044;15.938;2023-07-20T14:42:13;5.70;;;1.70;;
74465;SDS011;62916;50.044;15.938;2023-07-20T14:44:44;7.50;;;2.40;;
74465;SDS011;62916;50.044;15.938;2023-07-20T14:47:14;7.40;;;1.90;;
74465;SDS011;62916;50.044;15.938;2023-07-20T14:49:46;7.70;;;2.60;;
74465;SDS011;62916;50.044;15.938;2023-07-20T14:52:17;6.60;;;1.80;;
74465;SDS011;62916;50.044;15.938;2023-07-20T14:54:48;8.10;;;1.90;;
74465;SDS011;62916;50.044;15.938;2023-07-20T14:57:19;5.60;;;1.90;;
74465;SDS011;62916;50.044;15.938;2023-07-20T14:59:52;5.20;;;1.40;;
74465;SDS011;62916;50.044;15.938;2023-07-20T15:02:22;6.80;;;1.30;;
74465;SDS011;62916;50.044;15.938;2023-07-20T15:04:54;4.70;;;1.20;;